Tellejaur, Sweden

7:06 AM CEST on July 31, 2016 (GMT +0200)
Vidsel Air Base | | Change Station

Elev 597 ft 65.88 °N, 20.14 °E | Updated 16 minutes ago

Mostly Cloudy
Mostly Cloudy
57 °F
Feels Like 57 °F
N
4
Wind Variable Wind from Variable

Today
High -- | Low -- °F
--% Chance of Precip.
Yesterday
High -- | Low -- °F
Precip. -- in
Pressure 29.62 in
Visibility 6.2 miles
Clouds Few 9000 ft
Mostly Cloudy 12000 ft
Dew Point 54 °F
Humidity 88%
Rainfall 0.00 in
Snow Depth Not available.
3:22 AM 10:10 PM
Waning Crescent, 9% visible
METAR ESPE 310450Z AUTO VRB03KT 9999 FEW090/// BKN120/// 14/12 Q1003
Pressure 29.62 in
Visibility 6.2 miles
Clouds Few 9000 ft
Mostly Cloudy 12000 ft
Dew Point 54 °F
Humidity 88%
Rainfall 0.00 in
Snow Depth Not available.
3:22 AM 10:10 PM
Waning Crescent, 9% visible
METAR ESPE 310450Z AUTO VRB03KT 9999 FEW090/// BKN120/// 14/12 Q1003

10-Day Weather Forecast

×

Almanac

Astronomy

Jul. 31, 2016 Rise Set
Actual Time
Civil Twilight
Nautical Twilight
Astronomical Twilight
Moon
Length of Visible Light
Length of Day
Tomorrow will be .
, % of the Moon is Illuminated

Today's Extremes

Country Highs Country Lows

Community

WunderPhotos

Upload Photos

1,928,761 photos uploaded!

WunderBlog® & News

Nearby

Air Quality

  Air Quality AQ Index Pollutant
Not available.

Snow Depth

Station Depth Elevation

Earthquake Activity

City Distance Mag. Time & Date
Minimum magnitude displayed is 2.5.

Coastal Water Temperatures

Place Temperature

Stations

Nearby Weather Stations

Station Location Temp. Windchill Dew Point Humidity Wind Precip. Elev Updated Type